sensor_id;sensor_type;location;lat;lon;timestamp;pressure;altitude;pressure_sealevel;temperature;humidity
39613;BME280;25303;48.896;13.342;2023-01-28T00:00:18;92962.00;;;0.81;57.75
39613;BME280;25303;48.896;13.342;2023-01-28T00:03:01;92959.47;;;0.81;57.70
39613;BME280;25303;48.896;13.342;2023-01-28T00:05:43;92965.88;;;0.86;58.05
39613;BME280;25303;48.896;13.342;2023-01-28T00:08:26;92957.84;;;0.93;58.15
39613;BME280;25303;48.896;13.342;2023-01-28T00:11:10;92961.75;;;0.98;58.18
39613;BME280;25303;48.896;13.342;2023-01-28T00:13:55;92962.44;;;1.00;58.20
39613;BME280;25303;48.896;13.342;2023-01-28T00:16:38;92962.91;;;1.07;58.03
39613;BME280;25303;48.896;13.342;2023-01-28T00:19:21;92968.66;;;1.09;58.20
39613;BME280;25303;48.896;13.342;2023-01-28T00:22:03;92960.88;;;1.12;58.22
39613;BME280;25303;48.896;13.342;2023-01-28T00:24:46;92955.72;;;1.14;58.15
39613;BME280;25303;48.896;13.342;2023-01-28T00:27:29;92960.97;;;1.11;58.14
39613;BME280;25303;48.896;13.342;2023-01-28T00:30:14;92962.91;;;1.07;58.26
39613;BME280;25303;48.896;13.342;2023-01-28T00:32:57;92963.59;;;1.09;58.29
39613;BME280;25303;48.896;13.342;2023-01-28T00:35:39;92972.63;;;1.13;58.30
39613;BME280;25303;48.896;13.342;2023-01-28T00:38:22;92959.88;;;1.15;58.33
39613;BME280;25303;48.896;13.342;2023-01-28T00:41:06;92965.75;;;1.15;58.02
39613;BME280;25303;48.896;13.342;2023-01-28T00:43:50;92957.28;;;1.02;57.35
39613;BME280;25303;48.896;13.342;2023-01-28T00:46:34;92970.44;;;0.94;57.25
39613;BME280;25303;48.896;13.342;2023-01-28T00:49:17;92966.47;;;0.90;57.11
39613;BME280;25303;48.896;13.342;2023-01-28T00:52:00;92968.72;;;0.95;57.29
39613;BME280;25303;48.896;13.342;2023-01-28T00:54:43;92977.16;;;0.95;57.53
39613;BME280;25303;48.896;13.342;2023-01-28T00:57:26;92971.06;;;0.98;57.43
39613;BME280;25303;48.896;13.342;2023-01-28T01:00:10;92971.00;;;0.99;57.34
39613;BME280;25303;48.896;13.342;2023-01-28T01:02:54;92980.13;;;1.02;57.23
39613;BME280;25303;48.896;13.342;2023-01-28T01:05:37;92977.47;;;1.03;57.48
39613;BME280;25303;48.896;13.342;2023-01-28T01:08:21;92974.63;;;0.95;57.10
39613;BME280;25303;48.896;13.342;2023-01-28T01:11:16;92988.72;;;0.99;57.13
39613;BME280;25303;48.896;13.342;2023-01-28T01:14:00;92986.88;;;0.88;56.97
39613;BME280;25303;48.896;13.342;2023-01-28T01:16:45;92988.28;;;0.93;57.03
39613;BME280;25303;48.896;13.342;2023-01-28T01:19:29;92984.03;;;0.93;56.83
39613;BME280;25303;48.896;13.342;2023-01-28T01:22:12;92984.03;;;0.93;57.12
39613;BME280;25303;48.896;13.342;2023-01-28T01:24:55;92989.19;;;0.91;57.05
39613;BME280;25303;48.896;13.342;2023-01-28T01:27:38;92991.72;;;0.91;57.07
39613;BME280;25303;48.896;13.342;2023-01-28T01:30:21;92990.72;;;0.94;57.19
39613;BME280;25303;48.896;13.342;2023-01-28T01:33:04;92987.28;;;0.95;57.09
39613;BME280;25303;48.896;13.342;2023-01-28T01:35:53;92998.16;;;0.97;57.11
39613;BME280;25303;48.896;13.342;2023-01-28T01:38:36;93000.47;;;1.00;57.06
39613;BME280;25303;48.896;13.342;2023-01-28T01:41:23;92996.22;;;1.01;57.11
39613;BME280;25303;48.896;13.342;2023-01-28T01:47:24;92995.41;;;1.00;56.80
39613;BME280;25303;48.896;13.342;2023-01-28T01:50:15;92997.47;;;0.81;56.80
39613;BME280;25303;48.896;13.342;2023-01-28T01:53:03;93001.63;;;0.82;56.62
39613;BME280;25303;48.896;13.342;2023-01-28T01:55:50;92999.63;;;0.87;56.91
39613;BME280;25303;48.896;13.342;2023-01-28T01:58:38;93008.78;;;0.89;56.67
39613;BME280;25303;48.896;13.342;2023-01-28T02:01:23;93005.69;;;0.84;56.63
39613;BME280;25303;48.896;13.342;2023-01-28T02:04:10;93000.53;;;0.86;56.68
39613;BME280;25303;48.896;13.342;2023-01-28T02:06:55;93002.88;;;0.89;56.62
39613;BME280;25303;48.896;13.342;2023-01-28T02:09:40;93001.16;;;0.89;56.50
39613;BME280;25303;48.896;13.342;2023-01-28T02:12:28;92997.44;;;0.95;56.61
39613;BME280;25303;48.896;13.342;2023-01-28T02:15:15;92994.91;;;0.95;56.64
39613;BME280;25303;48.896;13.342;2023-01-28T02:17:59;92996.34;;;0.99;56.71
39613;BME280;25303;48.896;13.342;2023-01-28T02:21:10;92999.50;;;1.03;56.97
39613;BME280;25303;48.896;13.342;2023-01-28T02:24:13;92997.75;;;1.03;56.93
39613;BME280;25303;48.896;13.342;2023-01-28T02:27:13;93004.25;;;1.08;56.74
39613;BME280;25303;48.896;13.342;2023-01-28T02:30:05;93001.72;;;1.08;56.82
39613;BME280;25303;48.896;13.342;2023-01-28T02:32:52;93001.53;;;1.11;56.83
39613;BME280;25303;48.896;13.342;2023-01-28T02:35:41;92999.53;;;1.16;57.01
39613;BME280;25303;48.896;13.342;2023-01-28T02:38:27;93007.75;;;1.19;56.77
39613;BME280;25303;48.896;13.342;2023-01-28T02:41:17;93004.22;;;1.22;56.78
39613;BME280;25303;48.896;13.342;2023-01-28T02:44:03;93003.19;;;1.25;56.86
39613;BME280;25303;48.896;13.342;2023-01-28T02:46:51;92997.22;;;1.26;56.85
39613;BME280;25303;48.896;13.342;2023-01-28T02:49:55;92998.66;;;1.30;56.89
39613;BME280;25303;48.896;13.342;2023-01-28T02:52:53;93003.19;;;1.25;56.72
39613;BME280;25303;48.896;13.342;2023-01-28T02:56:01;93007.56;;;1.23;56.88
39613;BME280;25303;48.896;13.342;2023-01-28T02:58:52;93012.72;;;1.21;56.67
39613;BME280;25303;48.896;13.342;2023-01-28T03:01:41;93004.31;;;1.20;56.87
39613;BME280;25303;48.896;13.342;2023-01-28T03:04:29;93014.47;;;1.20;56.83
39613;BME280;25303;48.896;13.342;2023-01-28T03:07:15;93001.13;;;1.17;56.60
39613;BME280;25303;48.896;13.342;2023-01-28T03:10:00;93008.13;;;1.13;56.54
39613;BME280;25303;48.896;13.342;2023-01-28T03:12:48;93010.84;;;1.10;56.77
39613;BME280;25303;48.896;13.342;2023-01-28T03:15:51;93010.97;;;1.09;56.85
39613;BME280;25303;48.896;13.342;2023-01-28T03:18:51;93012.47;;;1.11;56.92
39613;BME280;25303;48.896;13.342;2023-01-28T03:21:55;93008.66;;;1.18;57.05
39613;BME280;25303;48.896;13.342;2023-01-28T03:24:58;93011.81;;;1.22;57.18
39613;BME280;25303;48.896;13.342;2023-01-28T03:28:02;93013.44;;;1.23;56.96
39613;BME280;25303;48.896;13.342;2023-01-28T03:31:09;93014.28;;;1.24;56.95
39613;BME280;25303;48.896;13.342;2023-01-28T03:34:13;93010.78;;;1.25;57.13
39613;BME280;25303;48.896;13.342;2023-01-28T03:37:16;93008.25;;;1.25;57.17
39613;BME280;25303;48.896;13.342;2023-01-28T03:40:04;93010.09;;;1.23;57.01
39613;BME280;25303;48.896;13.342;2023-01-28T03:42:47;93014.28;;;1.24;56.92
39613;BME280;25303;48.896;13.342;2023-01-28T03:45:43;93015.88;;;1.25;57.01
39613;BME280;25303;48.896;13.342;2023-01-28T03:48:27;93016.88;;;1.22;57.36
39613;BME280;25303;48.896;13.342;2023-01-28T03:51:11;93017.72;;;1.23;57.25
39613;BME280;25303;48.896;13.342;2023-01-28T03:53:55;93021.97;;;1.22;57.33
39613;BME280;25303;48.896;13.342;2023-01-28T03:56:38;93011.28;;;1.17;57.15
39613;BME280;25303;48.896;13.342;2023-01-28T03:59:21;93012.09;;;1.17;57.30
39613;BME280;25303;48.896;13.342;2023-01-28T04:02:05;93016.28;;;1.18;57.28
39613;BME280;25303;48.896;13.342;2023-01-28T04:04:48;93018.50;;;1.23;57.43
39613;BME280;25303;48.896;13.342;2023-01-28T04:07:32;93021.06;;;1.23;57.33
39613;BME280;25303;48.896;13.342;2023-01-28T04:10:24;93015.06;;;1.24;57.31
39613;BME280;25303;48.896;13.342;2023-01-28T04:13:11;93014.97;;;1.26;57.45
39613;BME280;25303;48.896;13.342;2023-01-28T04:15:54;93012.41;;;1.26;57.49
39613;BME280;25303;48.896;13.342;2023-01-28T04:18:38;93016.59;;;1.27;57.40
39613;BME280;25303;48.896;13.342;2023-01-28T04:21:22;93020.13;;;1.24;57.43
39613;BME280;25303;48.896;13.342;2023-01-28T04:24:05;93017.59;;;1.24;57.48
39613;BME280;25303;48.896;13.342;2023-01-28T04:26:50;93019.53;;;1.20;57.26
39613;BME280;25303;48.896;13.342;2023-01-28T04:29:36;93016.28;;;1.18;57.35
39613;BME280;25303;48.896;13.342;2023-01-28T04:32:41;93024.69;;;1.19;57.55
39613;BME280;25303;48.896;13.342;2023-01-28T04:35:44;93027.03;;;1.22;57.63
39613;BME280;25303;48.896;13.342;2023-01-28T04:38:50;93037.78;;;1.26;57.52
39613;BME280;25303;48.896;13.342;2023-01-28T04:41:41;93041.16;;;1.26;57.67
39613;BME280;25303;48.896;13.342;2023-01-28T04:44:34;93033.63;;;1.25;57.56
39613;BME280;25303;48.896;13.342;2023-01-28T04:47:51;93042.25;;;1.22;57.59
39613;BME280;25303;48.896;13.342;2023-01-28T04:50:57;93041.22;;;1.25;57.73
39613;BME280;25303;48.896;13.342;2023-01-28T04:53:55;93043.16;;;1.21;57.71
39613;BME280;25303;48.896;13.342;2023-01-28T04:56:40;93038.91;;;1.21;57.85
39613;BME280;25303;48.896;13.342;2023-01-28T04:59:23;93043.06;;;1.23;57.87
39613;BME280;25303;48.896;13.342;2023-01-28T05:02:08;93052.09;;;1.27;57.83
39613;BME280;25303;48.896;13.342;2023-01-28T05:04:51;93055.66;;;1.24;58.07
39613;BME280;25303;48.896;13.342;2023-01-28T05:07:56;93056.38;;;1.26;57.93
39613;BME280;25303;48.896;13.342;2023-01-28T05:10:39;93054.56;;;1.28;57.95
39613;BME280;25303;48.896;13.342;2023-01-28T05:13:22;93051.28;;;1.26;57.64
39613;BME280;25303;48.896;13.342;2023-01-28T05:16:06;93057.38;;;1.24;57.87
39613;BME280;25303;48.896;13.342;2023-01-28T05:18:50;93055.53;;;1.26;58.07
39613;BME280;25303;48.896;13.342;2023-01-28T05:21:34;93058.91;;;1.26;57.84
39613;BME280;25303;48.896;13.342;2023-01-28T05:24:22;93057.47;;;1.22;58.04
39613;BME280;25303;48.896;13.342;2023-01-28T05:27:05;93061.81;;;1.20;57.95
39613;BME280;25303;48.896;13.342;2023-01-28T05:29:48;93053.22;;;1.23;58.10
39613;BME280;25303;48.896;13.342;2023-01-28T05:32:31;93055.66;;;1.24;58.12
39613;BME280;25303;48.896;13.342;2023-01-28T05:35:16;93052.50;;;1.20;57.86
39613;BME280;25303;48.896;13.342;2023-01-28T05:37:59;93055.03;;;1.20;58.01
39613;BME280;25303;48.896;13.342;2023-01-28T05:40:42;93054.84;;;1.24;58.18
39613;BME280;25303;48.896;13.342;2023-01-28T05:43:26;93054.75;;;1.25;57.96
39613;BME280;25303;48.896;13.342;2023-01-28T05:46:33;93061.63;;;1.23;58.03
39613;BME280;25303;48.896;13.342;2023-01-28T05:49:30;93054.84;;;1.24;58.08
39613;BME280;25303;48.896;13.342;2023-01-28T05:52:46;93057.47;;;1.22;58.22
39613;BME280;25303;48.896;13.342;2023-01-28T05:55:39;93057.47;;;1.22;58.31
39613;BME280;25303;48.896;13.342;2023-01-28T05:58:22;93060.53;;;1.27;58.19
39613;BME280;25303;48.896;13.342;2023-01-28T06:01:05;93063.97;;;1.26;58.10
39613;BME280;25303;48.896;13.342;2023-01-28T06:03:54;93065.59;;;1.27;58.31
39613;BME280;25303;48.896;13.342;2023-01-28T06:06:37;93074.00;;;1.28;58.04
39613;BME280;25303;48.896;13.342;2023-01-28T06:09:21;93073.22;;;1.27;58.18
39613;BME280;25303;48.896;13.342;2023-01-28T06:12:05;93068.94;;;1.28;58.21
39613;BME280;25303;48.896;13.342;2023-01-28T06:14:59;93070.56;;;1.29;58.22
39613;BME280;25303;48.896;13.342;2023-01-28T06:18:14;93075.63;;;1.29;58.22
39613;BME280;25303;48.896;13.342;2023-01-28T06:20:57;93076.66;;;1.26;57.94
39613;BME280;25303;48.896;13.342;2023-01-28T06:23:40;93086.81;;;1.26;58.00
39613;BME280;25303;48.896;13.342;2023-01-28T06:26:24;93088.31;;;1.29;58.12
39613;BME280;25303;48.896;13.342;2023-01-28T06:29:07;93088.25;;;1.30;58.19
39613;BME280;25303;48.896;13.342;2023-01-28T06:31:50;93087.94;;;1.35;58.16
39613;BME280;25303;48.896;13.342;2023-01-28T06:34:33;93090.31;;;1.38;58.12
39613;BME280;25303;48.896;13.342;2023-01-28T06:37:16;93099.44;;;1.41;57.97
39613;BME280;25303;48.896;13.342;2023-01-28T06:39:59;93108.56;;;1.43;58.09
39613;BME280;25303;48.896;13.342;2023-01-28T06:42:43;93105.22;;;1.43;58.09
39613;BME280;25303;48.896;13.342;2023-01-28T06:45:26;93104.50;;;1.41;58.02
39613;BME280;25303;48.896;13.342;2023-01-28T06:48:09;93103.59;;;1.42;57.91
39613;BME280;25303;48.896;13.342;2023-01-28T06:50:52;93112.22;;;1.39;57.66
39613;BME280;25303;48.896;13.342;2023-01-28T06:53:35;93111.31;;;1.40;57.99
39613;BME280;25303;48.896;13.342;2023-01-28T06:56:18;93112.91;;;1.41;58.04
39613;BME280;25303;48.896;13.342;2023-01-28T06:59:02;93120.34;;;1.44;57.82
39613;BME280;25303;48.896;13.342;2023-01-28T07:01:45;93115.38;;;1.43;57.99
39613;BME280;25303;48.896;13.342;2023-01-28T07:04:28;93123.06;;;1.41;58.00
39613;BME280;25303;48.896;13.342;2023-01-28T07:07:11;93127.53;;;1.38;57.93
39613;BME280;25303;48.896;13.342;2023-01-28T07:09:54;93130.97;;;1.36;57.98
39613;BME280;25303;48.896;13.342;2023-01-28T07:12:36;93134.63;;;1.32;58.03
39613;BME280;25303;48.896;13.342;2023-01-28T07:15:21;93134.81;;;1.29;58.17
39613;BME280;25303;48.896;13.342;2023-01-28T07:18:04;93142.41;;;1.29;58.13
39613;BME280;25303;48.896;13.342;2023-01-28T07:20:47;93143.94;;;1.32;58.29
39613;BME280;25303;48.896;13.342;2023-01-28T07:23:30;93148.72;;;1.36;58.40
39613;BME280;25303;48.896;13.342;2023-01-28T07:26:13;93146.28;;;1.35;58.07
39613;BME280;25303;48.896;13.342;2023-01-28T07:28:56;93144.78;;;1.32;58.18
39613;BME280;25303;48.896;13.342;2023-01-28T07:31:40;93151.25;;;1.36;58.49
39613;BME280;25303;48.896;13.342;2023-01-28T07:34:23;93153.31;;;1.44;58.55
39613;BME280;25303;48.896;13.342;2023-01-28T07:37:06;93148.91;;;1.48;58.37
39613;BME280;25303;48.896;13.342;2023-01-28T07:39:48;93146.97;;;1.51;58.29
39613;BME280;25303;48.896;13.342;2023-01-28T07:42:32;93145.06;;;1.55;58.32
39613;BME280;25303;48.896;13.342;2023-01-28T07:45:18;93153.94;;;1.62;58.41
39613;BME280;25303;48.896;13.342;2023-01-28T07:48:05;93156.28;;;1.65;58.27
39613;BME280;25303;48.896;13.342;2023-01-28T07:50:48;93159.44;;;1.69;58.43
39613;BME280;25303;48.896;13.342;2023-01-28T07:53:32;93160.88;;;1.73;58.39
39613;BME280;25303;48.896;13.342;2023-01-28T07:56:15;93163.91;;;1.78;58.47
39613;BME280;25303;48.896;13.342;2023-01-28T07:58:58;93163.91;;;1.78;58.04
39613;BME280;25303;48.896;13.342;2023-01-28T08:01:40;93171.53;;;1.78;58.23
39613;BME280;25303;48.896;13.342;2023-01-28T08:04:24;93171.25;;;1.83;58.33
39613;BME280;25303;48.896;13.342;2023-01-28T08:07:07;93173.69;;;1.85;58.38
39613;BME280;25303;48.896;13.342;2023-01-28T08:09:50;93172.38;;;1.79;57.80
39613;BME280;25303;48.896;13.342;2023-01-28T08:12:33;93175.47;;;1.70;57.83
39613;BME280;25303;48.896;13.342;2023-01-28T08:15:16;93173.84;;;1.69;58.26
39613;BME280;25303;48.896;13.342;2023-01-28T08:17:59;93178.53;;;1.75;58.32
39613;BME280;25303;48.896;13.342;2023-01-28T08:20:43;93176.44;;;1.81;58.38
39613;BME280;25303;48.896;13.342;2023-01-28T08:23:28;93175.22;;;1.87;58.41
39613;BME280;25303;48.896;13.342;2023-01-28T08:26:11;93180.13;;;1.90;58.21
39613;BME280;25303;48.896;13.342;2023-01-28T08:28:53;93180.66;;;1.95;58.24
39613;BME280;25303;48.896;13.342;2023-01-28T08:31:36;93179.63;;;1.98;58.05
39613;BME280;25303;48.896;13.342;2023-01-28T08:34:19;93182.69;;;2.03;58.14
39613;BME280;25303;48.896;13.342;2023-01-28T08:37:03;93182.28;;;2.09;58.13
39613;BME280;25303;48.896;13.342;2023-01-28T08:39:46;93189.00;;;2.10;57.81
39613;BME280;25303;48.896;13.342;2023-01-28T08:42:29;93195.81;;;2.10;57.83
39613;BME280;25303;48.896;13.342;2023-01-28T08:45:12;93188.63;;;2.17;58.02
39613;BME280;25303;48.896;13.342;2023-01-28T08:47:57;93193.31;;;2.23;57.88
39613;BME280;25303;48.896;13.342;2023-01-28T08:50:40;93194.66;;;2.28;57.74
39613;BME280;25303;48.896;13.342;2023-01-28T08:53:24;93191.81;;;2.33;57.92
39613;BME280;25303;48.896;13.342;2023-01-28T08:56:07;93189.06;;;2.36;57.89
39613;BME280;25303;48.896;13.342;2023-01-28T08:58:50;93192.22;;;2.40;57.71
39613;BME280;25303;48.896;13.342;2023-01-28T09:01:33;93187.88;;;2.42;57.85
39613;BME280;25303;48.896;13.342;2023-01-28T09:04:16;93187.66;;;2.45;57.83
39613;BME280;25303;48.896;13.342;2023-01-28T09:06:59;93194.16;;;2.49;57.73
39613;BME280;25303;48.896;13.342;2023-01-28T09:09:43;93199.16;;;2.51;57.72
39613;BME280;25303;48.896;13.342;2023-01-28T09:12:26;93204.97;;;2.53;57.66
39613;BME280;25303;48.896;13.342;2023-01-28T09:15:10;93200.78;;;2.52;57.41
39613;BME280;25303;48.896;13.342;2023-01-28T09:17:56;93199.34;;;2.48;57.41
39613;BME280;25303;48.896;13.342;2023-01-28T09:20:39;93207.28;;;2.43;57.06
39613;BME280;25303;48.896;13.342;2023-01-28T09:23:22;93212.84;;;2.35;57.32
39613;BME280;25303;48.896;13.342;2023-01-28T09:26:06;93222.09;;;2.36;57.46
39613;BME280;25303;48.896;13.342;2023-01-28T09:28:50;93213.97;;;2.31;57.09
39613;BME280;25303;48.896;13.342;2023-01-28T09:31:33;93216.19;;;2.36;57.56
39613;BME280;25303;48.896;13.342;2023-01-28T09:34:16;93218.34;;;2.42;57.66
39613;BME280;25303;48.896;13.342;2023-01-28T09:36:59;93220.47;;;2.35;57.40
39613;BME280;25303;48.896;13.342;2023-01-28T09:39:42;93225.31;;;2.25;57.42
39613;BME280;25303;48.896;13.342;2023-01-28T09:42:42;93227.53;;;2.17;57.48
39613;BME280;25303;48.896;13.342;2023-01-28T09:45:31;93222.38;;;2.19;57.51
39613;BME280;25303;48.896;13.342;2023-01-28T09:48:20;93230.97;;;2.16;57.29
39613;BME280;25303;48.896;13.342;2023-01-28T09:51:09;93224.19;;;2.17;57.79
39613;BME280;25303;48.896;13.342;2023-01-28T09:53:54;93227.94;;;2.24;57.72
39613;BME280;25303;48.896;13.342;2023-01-28T09:56:41;93224.41;;;2.26;57.72
39613;BME280;25303;48.896;13.342;2023-01-28T09:59:28;93222.81;;;2.38;58.05
39613;BME280;25303;48.896;13.342;2023-01-28T10:02:25;93221.81;;;2.41;57.93
39613;BME280;25303;48.896;13.342;2023-01-28T10:05:17;93219.78;;;2.46;57.89
39613;BME280;25303;48.896;13.342;2023-01-28T10:08:13;93220.28;;;2.51;57.90
39613;BME280;25303;48.896;13.342;2023-01-28T10:11:03;93217.25;;;2.59;57.69
39613;BME280;25303;48.896;13.342;2023-01-28T10:13:59;93213.53;;;2.65;57.60
39613;BME280;25303;48.896;13.342;2023-01-28T10:16:49;93217.78;;;2.64;57.28
39613;BME280;25303;48.896;13.342;2023-01-28T10:19:36;93216.34;;;2.60;56.98
39613;BME280;25303;48.896;13.342;2023-01-28T10:22:24;93219.78;;;2.59;57.43
39613;BME280;25303;48.896;13.342;2023-01-28T10:25:17;93221.00;;;2.53;57.09
39613;BME280;25303;48.896;13.342;2023-01-28T10:28:01;93215.50;;;2.47;56.96
39613;BME280;25303;48.896;13.342;2023-01-28T10:30:46;93219.78;;;2.46;57.29
39613;BME280;25303;48.896;13.342;2023-01-28T10:33:34;93215.94;;;2.53;57.45
39613;BME280;25303;48.896;13.342;2023-01-28T10:36:18;93209.13;;;2.54;57.50
39613;BME280;25303;48.896;13.342;2023-01-28T10:39:00;93213.78;;;2.60;57.40
39613;BME280;25303;48.896;13.342;2023-01-28T10:41:43;93212.47;;;2.54;57.02
39613;BME280;25303;48.896;13.342;2023-01-28T10:44:39;93218.88;;;2.47;56.89
39613;BME280;25303;48.896;13.342;2023-01-28T10:47:30;93212.16;;;2.46;56.84
39613;BME280;25303;48.896;13.342;2023-01-28T10:50:19;93212.03;;;2.35;56.88
39613;BME280;25303;48.896;13.342;2023-01-28T10:53:04;93204.63;;;2.32;57.00
39613;BME280;25303;48.896;13.342;2023-01-28T10:55:51;93209.28;;;2.38;57.29
39613;BME280;25303;48.896;13.342;2023-01-28T10:58:46;93214.78;;;2.45;57.55
39613;BME280;25303;48.896;13.342;2023-01-28T11:01:41;93207.81;;;2.48;57.30
39613;BME280;25303;48.896;13.342;2023-01-28T11:04:27;93210.75;;;2.55;57.19
39613;BME280;25303;48.896;13.342;2023-01-28T11:07:17;93199.25;;;2.62;57.27
39613;BME280;25303;48.896;13.342;2023-01-28T11:10:00;93207.41;;;2.67;57.08
39613;BME280;25303;48.896;13.342;2023-01-28T11:12:53;93202.41;;;2.66;56.91
39613;BME280;25303;48.896;13.342;2023-01-28T11:15:40;93198.56;;;2.73;57.13
39613;BME280;25303;48.896;13.342;2023-01-28T11:18:30;93202.31;;;2.67;56.67
39613;BME280;25303;48.896;13.342;2023-01-28T11:21:15;93198.53;;;2.60;56.76
39613;BME280;25303;48.896;13.342;2023-01-28T11:24:03;93201.19;;;2.58;57.02
39613;BME280;25303;48.896;13.342;2023-01-28T11:26:48;93201.78;;;2.49;56.77
39613;BME280;25303;48.896;13.342;2023-01-28T11:29:33;93204.75;;;2.43;56.96
39613;BME280;25303;48.896;13.342;2023-01-28T11:32:24;93215.63;;;2.45;56.95
39613;BME280;25303;48.896;13.342;2023-01-28T11:35:23;93210.72;;;2.42;56.84
39613;BME280;25303;48.896;13.342;2023-01-28T11:38:16;93207.47;;;2.40;56.80
39613;BME280;25303;48.896;13.342;2023-01-28T11:41:01;93205.03;;;2.38;56.89
39613;BME280;25303;48.896;13.342;2023-01-28T11:43:44;93208.50;;;2.37;56.84
39613;BME280;25303;48.896;13.342;2023-01-28T11:46:44;93208.19;;;2.42;57.25
39613;BME280;25303;48.896;13.342;2023-01-28T11:49:39;93211.53;;;2.42;56.88
39613;BME280;25303;48.896;13.342;2023-01-28T11:52:32;93203.63;;;2.47;56.84
39613;BME280;25303;48.896;13.342;2023-01-28T11:55:44;93209.22;;;2.39;56.87
39613;BME280;25303;48.896;13.342;2023-01-28T11:58:38;93198.75;;;2.44;57.06
39613;BME280;25303;48.896;13.342;2023-01-28T12:01:34;93200.47;;;2.43;57.00
39613;BME280;25303;48.896;13.342;2023-01-28T12:04:24;93197.84;;;2.45;57.05
39613;BME280;25303;48.896;13.342;2023-01-28T12:07:25;93205.16;;;2.50;57.13
39613;BME280;25303;48.896;13.342;2023-01-28T12:10:15;93199.69;;;2.56;57.25
39613;BME280;25303;48.896;13.342;2023-01-28T12:13:10;93201.81;;;2.62;57.12
39613;BME280;25303;48.896;13.342;2023-01-28T12:19:31;93197.34;;;2.53;56.77
39613;BME280;25303;48.896;13.342;2023-01-28T12:22:41;93200.56;;;2.42;56.65
39613;BME280;25303;48.896;13.342;2023-01-28T12:25:38;93198.03;;;2.42;56.89
39613;BME280;25303;48.896;13.342;2023-01-28T12:28:34;93192.94;;;2.42;56.62
39613;BME280;25303;48.896;13.342;2023-01-28T12:31:37;93201.59;;;2.39;57.13
39613;BME280;25303;48.896;13.342;2023-01-28T12:34:39;93201.38;;;2.42;56.99
39613;BME280;25303;48.896;13.342;2023-01-28T12:37:40;93197.69;;;2.34;56.90
39613;BME280;25303;48.896;13.342;2023-01-28T12:40:46;93198.59;;;2.33;57.04
39613;BME280;25303;48.896;13.342;2023-01-28T12:43:42;93201.66;;;2.38;57.23
39613;BME280;25303;48.896;13.342;2023-01-28T12:46:37;93201.47;;;2.41;57.11
39613;BME280;25303;48.896;13.342;2023-01-28T12:49:25;93202.72;;;2.48;57.17
39613;BME280;25303;48.896;13.342;2023-01-28T12:52:15;93199.97;;;2.51;57.09
39613;BME280;25303;48.896;13.342;2023-01-28T12:55:03;93203.72;;;2.46;56.72
39613;BME280;25303;48.896;13.342;2023-01-28T12:57:46;93203.41;;;2.37;56.96
39613;BME280;25303;48.896;13.342;2023-01-28T13:00:33;93200.66;;;2.40;57.06
39613;BME280;25303;48.896;13.342;2023-01-28T13:03:20;93193.03;;;2.40;57.16
39613;BME280;25303;48.896;13.342;2023-01-28T13:06:11;93204.97;;;2.53;57.46
39613;BME280;25303;48.896;13.342;2023-01-28T13:09:01;93203.63;;;2.60;56.97
39613;BME280;25303;48.896;13.342;2023-01-28T13:11:46;93209.75;;;2.57;56.46
39613;BME280;25303;48.896;13.342;2023-01-28T13:14:31;93210.66;;;2.56;56.63
39613;BME280;25303;48.896;13.342;2023-01-28T13:17:25;93211.88;;;2.51;56.83
39613;BME280;25303;48.896;13.342;2023-01-28T13:20:15;93213.19;;;2.56;56.95
39613;BME280;25303;48.896;13.342;2023-01-28T13:23:03;93209.13;;;2.67;57.14
39613;BME280;25303;48.896;13.342;2023-01-28T13:25:50;93210.16;;;2.77;57.10
39613;BME280;25303;48.896;13.342;2023-01-28T13:28:33;93216.97;;;2.77;56.75
39613;BME280;25303;48.896;13.342;2023-01-28T13:31:19;93217.69;;;2.79;56.86
39613;BME280;25303;48.896;13.342;2023-01-28T13:34:04;93228.16;;;2.74;56.54
39613;BME280;25303;48.896;13.342;2023-01-28T13:36:47;93229.28;;;2.70;56.40
39613;BME280;25303;48.896;13.342;2023-01-28T13:39:32;93234.53;;;2.67;56.74
39613;BME280;25303;48.896;13.342;2023-01-28T13:42:23;93232.63;;;2.57;56.41
39613;BME280;25303;48.896;13.342;2023-01-28T13:45:20;93231.19;;;2.53;56.30
39613;BME280;25303;48.896;13.342;2023-01-28T13:48:19;93233.00;;;2.51;56.46
39613;BME280;25303;48.896;13.342;2023-01-28T13:51:09;93231.19;;;2.53;56.46
39613;BME280;25303;48.896;13.342;2023-01-28T13:53:57;93239.00;;;2.50;56.55
39613;BME280;25303;48.896;13.342;2023-01-28T13:57:00;93241.84;;;2.46;56.62
39613;BME280;25303;48.896;13.342;2023-01-28T13:59:53;93242.75;;;2.45;56.45
39613;BME280;25303;48.896;13.342;2023-01-28T14:06:23;93247.03;;;2.44;56.60
39613;BME280;25303;48.896;13.342;2023-01-28T14:09:30;93248.66;;;2.45;56.64
39613;BME280;25303;48.896;13.342;2023-01-28T14:12:44;93245.16;;;2.33;56.28
39613;BME280;25303;48.896;13.342;2023-01-28T14:15:55;93249.53;;;2.31;56.53
39613;BME280;25303;48.896;13.342;2023-01-28T14:18:42;93260.72;;;2.28;56.57
39613;BME280;25303;48.896;13.342;2023-01-28T14:21:27;93258.16;;;2.28;56.69
39613;BME280;25303;48.896;13.342;2023-01-28T14:24:11;93267.41;;;2.30;56.70
39613;BME280;25303;48.896;13.342;2023-01-28T14:27:00;93265.16;;;2.25;56.40
39613;BME280;25303;48.896;13.342;2023-01-28T14:29:54;93275.72;;;2.19;56.17
39613;BME280;25303;48.896;13.342;2023-01-28T14:32:46;93271.44;;;2.19;56.79
39613;BME280;25303;48.896;13.342;2023-01-28T14:35:32;93281.78;;;2.16;56.65
39613;BME280;25303;48.896;13.342;2023-01-28T14:38:17;93276.69;;;2.16;56.89
39613;BME280;25303;48.896;13.342;2023-01-28T14:41:03;93287.50;;;2.20;56.50
39613;BME280;25303;48.896;13.342;2023-01-28T14:43:46;93284.06;;;2.21;56.62
39613;BME280;25303;48.896;13.342;2023-01-28T14:46:33;93283.22;;;2.20;56.67
39613;BME280;25303;48.896;13.342;2023-01-28T14:49:28;93281.41;;;2.22;56.74
39613;BME280;25303;48.896;13.342;2023-01-28T14:52:36;93280.06;;;2.17;56.62
39613;BME280;25303;48.896;13.342;2023-01-28T14:55:33;93279.72;;;2.08;56.47
39613;BME280;25303;48.896;13.342;2023-01-28T14:58:22;93279.94;;;2.05;56.57
39613;BME280;25303;48.896;13.342;2023-01-28T15:01:18;93287.31;;;2.08;56.82